createdAt,value
2022-08-19T00:01:26.281Z,99.90
2022-08-19T00:04:01.285Z,99.90
2022-08-19T00:06:29.233Z,99.90
2022-08-19T00:08:56.683Z,99.90
2022-08-19T00:11:26.041Z,99.90
2022-08-19T00:13:53.846Z,99.90
2022-08-19T00:16:25.090Z,99.90
2022-08-19T00:18:54.471Z,99.90
2022-08-19T00:21:21.438Z,99.90
2022-08-19T00:23:48.589Z,99.90
2022-08-19T00:26:15.722Z,99.90
2022-08-19T00:28:42.771Z,99.90
2022-08-19T00:31:10.044Z,99.90
2022-08-19T00:33:37.074Z,99.90
2022-08-19T00:36:07.335Z,99.90
2022-08-19T00:38:37.997Z,99.90
2022-08-19T00:41:06.460Z,99.90
2022-08-19T00:43:33.482Z,99.90
2022-08-19T00:46:00.576Z,99.90
2022-08-19T00:48:27.648Z,99.90
2022-08-19T00:50:54.661Z,99.90
2022-08-19T00:53:23.179Z,99.90
2022-08-19T00:55:51.722Z,99.90
2022-08-19T00:58:21.465Z,99.90
2022-08-19T01:00:48.807Z,99.90
2022-08-19T01:03:19.240Z,99.90
2022-08-19T01:05:46.827Z,99.90
2022-08-19T01:08:15.119Z,99.90
2022-08-19T01:10:44.824Z,99.90
2022-08-19T01:13:11.949Z,99.90
2022-08-19T01:15:45.228Z,99.90
2022-08-19T01:18:14.283Z,99.90
2022-08-19T01:20:41.385Z,99.90
2022-08-19T01:23:08.386Z,99.90
2022-08-19T01:25:51.130Z,99.90
2022-08-19T01:28:33.864Z,99.90
2022-08-19T01:31:01.533Z,99.90
2022-08-19T01:33:35.171Z,99.90
2022-08-19T01:36:07.699Z,99.90
2022-08-19T01:38:37.526Z,99.90
2022-08-19T01:41:12.421Z,99.90
2022-08-19T01:43:39.504Z,99.90
2022-08-19T01:46:26.605Z,99.90
2022-08-19T01:48:53.654Z,99.90
2022-08-19T01:51:20.623Z,99.90
2022-08-19T01:53:52.312Z,99.90
2022-08-19T01:56:20.048Z,99.90
2022-08-19T02:09:13.545Z,99.90
2022-08-19T02:11:43.346Z,99.90
2022-08-19T02:14:10.560Z,99.90
2022-08-19T02:16:38.201Z,99.90
2022-08-19T02:22:08.653Z,99.90
2022-08-19T02:24:43.810Z,99.90
2022-08-19T02:27:10.863Z,99.90
2022-08-19T02:29:38.032Z,99.90
2022-08-19T02:34:30.482Z,99.90
2022-08-19T02:37:01.810Z,99.90
2022-08-19T02:49:39.856Z,99.90
2022-08-19T02:52:06.870Z,99.90
2022-08-19T02:54:33.838Z,99.90
2022-08-19T02:57:01.416Z,99.90
2022-08-19T02:59:31.539Z,99.90
2022-08-19T03:01:58.620Z,99.90
2022-08-19T03:04:25.647Z,99.90
2022-08-19T03:06:52.887Z,99.90
2022-08-19T03:09:20.718Z,99.90
2022-08-19T03:11:48.708Z,99.90
2022-08-19T03:14:19.889Z,99.90
2022-08-19T03:16:49.538Z,99.90
2022-08-19T03:19:18.180Z,99.90
2022-08-19T03:21:49.326Z,99.90
2022-08-19T03:24:17.346Z,99.90
2022-08-19T03:26:50.218Z,99.90
2022-08-19T03:29:22.219Z,99.90
2022-08-19T03:32:04.687Z,99.90
2022-08-19T03:48:04.535Z,99.90
2022-08-19T04:47:49.114Z,99.90
2022-08-19T04:50:16.231Z,99.90
2022-08-19T04:52:43.918Z,99.90
2022-08-19T04:55:11.858Z,99.90
2022-08-19T04:57:41.315Z,99.90
2022-08-19T05:00:09.914Z,99.90
2022-08-19T05:02:38.801Z,99.90
2022-08-19T05:05:07.752Z,99.90
2022-08-19T05:07:35.034Z,99.90
2022-08-19T05:10:02.227Z,99.90
2022-08-19T05:12:30.005Z,99.90
2022-08-19T05:14:58.659Z,99.90
2022-08-19T05:17:28.979Z,99.90
2022-08-19T05:20:15.742Z,99.90
2022-08-19T05:22:44.014Z,99.90
2022-08-19T05:25:13.833Z,99.90
2022-08-19T05:27:41.615Z,99.90
2022-08-19T05:30:09.062Z,99.90
2022-08-19T05:32:36.352Z,99.90
2022-08-19T05:35:03.554Z,99.90
2022-08-19T05:37:30.594Z,99.90
2022-08-19T05:39:57.675Z,99.90
2022-08-19T05:42:24.944Z,99.90
2022-08-19T05:44:52.522Z,99.90
2022-08-19T05:47:20.906Z,99.90
2022-08-19T05:49:48.442Z,99.90
2022-08-19T05:52:16.948Z,99.90
2022-08-19T05:54:48.953Z,99.90
2022-08-19T05:57:21.664Z,99.90
2022-08-19T05:59:53.037Z,99.90
2022-08-19T06:02:29.454Z,99.90
2022-08-19T06:04:58.783Z,99.90
2022-08-19T06:12:05.164Z,99.90
2022-08-19T06:14:33.554Z,99.90
2022-08-19T06:17:06.783Z,99.90
2022-08-19T06:19:34.761Z,99.90
2022-08-19T06:22:08.520Z,99.90
2022-08-19T06:24:36.583Z,99.90
2022-08-19T06:27:04.329Z,99.90
2022-08-19T06:29:31.327Z,99.90
2022-08-19T06:32:00.330Z,99.90
2022-08-19T06:34:29.017Z,99.90
2022-08-19T06:36:56.258Z,99.90
2022-08-19T06:39:27.976Z,99.90
2022-08-19T06:44:43.261Z,99.90
2022-08-19T06:47:14.617Z,99.90
2022-08-19T06:49:42.422Z,99.90
2022-08-19T06:52:09.707Z,99.90
2022-08-19T06:54:55.557Z,99.90
2022-08-19T06:57:23.547Z,99.90
2022-08-19T06:59:50.699Z,99.90
2022-08-19T07:04:45.657Z,99.90
2022-08-19T07:07:19.901Z,99.90
2022-08-19T07:09:51.571Z,99.90
2022-08-19T07:12:25.077Z,99.90
2022-08-19T07:14:53.919Z,99.90
2022-08-19T07:17:21.907Z,99.90
2022-08-19T07:19:49.376Z,99.90
2022-08-19T07:22:17.330Z,99.90
2022-08-19T07:24:51.190Z,99.90
2022-08-19T07:27:24.486Z,99.90
2022-08-19T07:29:55.966Z,99.90
2022-08-19T07:32:27.051Z,99.90
2022-08-19T07:34:54.259Z,99.90
2022-08-19T07:37:21.282Z,99.90
2022-08-19T07:39:48.767Z,99.90
2022-08-19T07:42:15.941Z,99.90
2022-08-19T07:44:50.031Z,99.90
2022-08-19T07:47:58.758Z,99.90
2022-08-19T07:50:07.678Z,99.90
2022-08-19T07:52:35.394Z,99.90
2022-08-19T07:55:04.942Z,99.90
2022-08-19T07:57:32.059Z,99.90
2022-08-19T07:59:59.444Z,99.90
2022-08-19T08:02:26.673Z,99.40
2022-08-19T08:05:12.222Z,99.10
2022-08-19T08:07:59.470Z,98.70
2022-08-19T08:10:26.868Z,99.90
2022-08-19T08:13:08.757Z,99.90
2022-08-19T08:15:42.171Z,97.30
2022-08-19T08:18:10.818Z,97.50
2022-08-19T08:20:38.189Z,97.90
2022-08-19T08:23:23.622Z,97.70
2022-08-19T08:25:50.852Z,95.00
2022-08-19T08:28:18.638Z,93.80
2022-08-19T08:30:49.161Z,97.30
2022-08-19T08:33:32.995Z,99.10
2022-08-19T08:36:08.130Z,99.70
2022-08-19T08:38:42.803Z,96.10
2022-08-19T08:41:20.903Z,95.90
2022-08-19T08:43:49.820Z,93.40
2022-08-19T08:46:31.104Z,93.90
2022-08-19T08:49:05.303Z,93.20
2022-08-19T08:54:14.895Z,94.40
2022-08-19T08:56:44.056Z,92.70
2022-08-19T08:59:29.519Z,92.10
2022-08-19T09:01:56.614Z,85.00
2022-08-19T09:04:23.850Z,88.50
2022-08-19T09:07:33.884Z,89.20
2022-08-19T09:10:11.771Z,85.80
2022-08-19T09:13:09.742Z,82.30
2022-08-19T09:15:49.011Z,79.70
2022-08-19T09:18:19.220Z,81.60
2022-08-19T09:20:48.462Z,81.20
2022-08-19T09:23:27.274Z,80.70
2022-08-19T09:25:54.599Z,81.40
2022-08-19T09:28:26.970Z,79.70
2022-08-19T09:30:54.130Z,78.80
2022-08-19T09:33:21.268Z,76.60
2022-08-19T09:35:49.942Z,79.40
2022-08-19T09:38:21.646Z,79.80
2022-08-19T09:40:50.954Z,82.00
2022-08-19T09:43:33.602Z,81.00
2022-08-19T09:46:10.540Z,83.80
2022-08-19T09:48:37.938Z,81.50
2022-08-19T09:51:11.863Z,82.40
2022-08-19T09:53:39.181Z,80.80
2022-08-19T09:56:07.264Z,78.80
2022-08-19T09:58:36.937Z,76.10
2022-08-19T10:01:04.318Z,77.30
2022-08-19T10:03:31.384Z,73.20
2022-08-19T10:05:59.767Z,71.60
2022-08-19T10:08:32.422Z,70.10
2022-08-19T10:10:59.600Z,71.00
2022-08-19T10:13:46.588Z,69.10
2022-08-19T10:16:17.215Z,68.00
2022-08-19T10:18:44.764Z,66.80
2022-08-19T10:21:28.527Z,66.60
2022-08-19T10:24:01.056Z,64.00
2022-08-19T10:26:30.474Z,64.60
2022-08-19T10:28:58.135Z,63.80
2022-08-19T10:32:01.058Z,65.60
2022-08-19T10:34:26.792Z,60.60
2022-08-19T10:37:00.421Z,61.70
2022-08-19T10:39:31.166Z,60.80
2022-08-19T10:41:59.159Z,60.80
2022-08-19T10:44:31.992Z,59.60
2022-08-19T10:47:00.214Z,61.40
2022-08-19T10:49:28.093Z,61.90
2022-08-19T10:52:18.969Z,60.90
2022-08-19T11:12:14.975Z,58.50
2022-08-19T11:14:41.946Z,58.90
2022-08-19T11:17:08.920Z,57.50
2022-08-19T11:19:36.597Z,57.80
2022-08-19T11:22:04.469Z,57.10
2022-08-19T11:24:31.595Z,56.50
2022-08-19T11:27:03.695Z,56.80
2022-08-19T11:29:30.668Z,56.10
2022-08-19T11:31:57.619Z,55.90
2022-08-19T11:34:26.515Z,55.80
2022-08-19T11:36:58.062Z,54.70
2022-08-19T11:39:25.249Z,54.80
2022-08-19T11:41:52.451Z,53.90
2022-08-19T11:44:19.467Z,53.20
2022-08-19T11:46:47.516Z,53.40
2022-08-19T11:49:19.874Z,53.10
2022-08-19T11:51:47.213Z,53.90
2022-08-19T11:54:15.259Z,53.10
2022-08-19T11:56:42.380Z,51.90
2022-08-19T11:59:14.079Z,51.10
2022-08-19T12:01:43.788Z,50.40
2022-08-19T12:04:11.367Z,50.20
2022-08-19T12:06:39.335Z,50.90
2022-08-19T12:09:07.477Z,49.70
2022-08-19T12:11:34.663Z,50.00
2022-08-19T12:14:01.824Z,49.00
2022-08-19T12:16:29.709Z,48.30
2022-08-19T12:18:56.888Z,49.40
2022-08-19T12:21:26.181Z,49.70
2022-08-19T12:23:55.766Z,51.10
2022-08-19T12:26:23.099Z,53.20
2022-08-19T12:28:50.019Z,53.80
2022-08-19T12:31:17.632Z,54.70
2022-08-19T12:33:44.632Z,55.40
2022-08-19T12:36:12.652Z,56.30
2022-08-19T12:38:39.786Z,57.10
2022-08-19T12:41:07.450Z,58.10
2022-08-19T12:43:36.051Z,57.30
2022-08-19T12:46:05.306Z,58.40
2022-08-19T12:48:34.792Z,59.60
2022-08-19T12:51:07.301Z,61.80
2022-08-19T12:53:34.551Z,62.20
2022-08-19T12:56:06.444Z,60.20
2022-08-19T12:58:37.009Z,61.70
2022-08-19T13:01:12.389Z,61.10
2022-08-19T13:03:40.739Z,61.10
2022-08-19T13:06:08.911Z,63.20
2022-08-19T13:08:35.979Z,63.50
2022-08-19T13:11:15.997Z,64.80
2022-08-19T13:13:43.881Z,65.60
2022-08-19T13:16:14.308Z,65.80
2022-08-19T13:18:42.311Z,64.00
2022-08-19T13:21:10.190Z,67.50
2022-08-19T13:23:37.230Z,65.90
2022-08-19T13:26:07.025Z,66.30
2022-08-19T13:28:52.742Z,65.50
2022-08-19T13:31:39.136Z,64.50
2022-08-19T13:34:06.868Z,63.20
2022-08-19T13:36:34.467Z,62.10
2022-08-19T13:39:01.531Z,60.40
2022-08-19T13:41:28.815Z,59.80
2022-08-19T13:43:55.934Z,60.00
2022-08-19T13:46:22.940Z,59.10
2022-08-19T13:48:50.012Z,59.70
2022-08-19T13:51:17.726Z,59.30
2022-08-19T13:53:47.877Z,57.90
2022-08-19T13:56:17.180Z,58.10
2022-08-19T13:58:44.667Z,58.80
2022-08-19T14:01:11.927Z,59.80
2022-08-19T14:03:39.099Z,59.10
2022-08-19T14:06:06.263Z,59.00
2022-08-19T14:08:33.775Z,59.60
2022-08-19T14:11:05.410Z,58.40
2022-08-19T14:13:35.052Z,58.90
2022-08-19T14:16:02.022Z,59.10
2022-08-19T14:18:28.932Z,59.70
2022-08-19T14:20:57.970Z,59.60
2022-08-19T14:23:25.960Z,63.50
2022-08-19T14:25:52.950Z,67.20
2022-08-19T14:28:19.959Z,73.40
2022-08-19T14:30:46.908Z,88.40
2022-08-19T14:33:14.996Z,99.90
2022-08-19T14:35:46.044Z,99.90
2022-08-19T14:38:17.384Z,99.90
2022-08-19T14:40:44.349Z,99.90
2022-08-19T14:43:11.391Z,99.90
2022-08-19T14:45:40.762Z,99.90
2022-08-19T14:48:08.711Z,99.90
2022-08-19T14:50:45.884Z,99.90
2022-08-19T14:53:13.496Z,99.90
2022-08-19T14:55:44.244Z,99.90
2022-08-19T14:58:29.266Z,99.90
2022-08-19T15:01:00.951Z,99.90
2022-08-19T15:03:28.574Z,99.90
2022-08-19T15:05:56.564Z,99.90
2022-08-19T15:08:25.851Z,99.90
2022-08-19T15:10:53.754Z,99.90
2022-08-19T15:13:20.717Z,99.90
2022-08-19T15:15:48.767Z,99.90
2022-08-19T15:18:15.825Z,99.90
2022-08-19T15:20:44.640Z,99.90
2022-08-19T15:23:17.354Z,99.90
2022-08-19T15:25:44.758Z,99.90
2022-08-19T15:28:12.227Z,99.90
2022-08-19T15:30:40.209Z,99.90
2022-08-19T15:33:07.406Z,99.90
2022-08-19T15:35:34.555Z,99.90
2022-08-19T15:38:01.898Z,99.90
2022-08-19T15:40:29.055Z,99.90
2022-08-19T15:42:56.213Z,99.90
2022-08-19T15:45:23.280Z,99.90
2022-08-19T15:47:50.401Z,99.90
2022-08-19T15:50:20.019Z,99.90
2022-08-19T15:52:49.932Z,99.90
2022-08-19T15:55:33.969Z,99.90
2022-08-19T15:58:29.918Z,99.90
2022-08-19T16:01:17.816Z,99.90
2022-08-19T16:04:13.711Z,99.90
2022-08-19T16:06:50.746Z,99.90
2022-08-19T16:09:19.045Z,99.90
2022-08-19T16:11:56.475Z,99.90
2022-08-19T16:14:23.771Z,99.90
2022-08-19T16:16:50.984Z,99.90
2022-08-19T16:19:18.569Z,99.90
2022-08-19T16:21:48.775Z,99.90
2022-08-19T16:24:16.962Z,99.90
2022-08-19T16:26:44.436Z,99.90
2022-08-19T16:29:13.201Z,99.90
2022-08-19T16:31:42.094Z,99.90
2022-08-19T16:34:09.276Z,99.90
2022-08-19T16:36:36.523Z,99.90
2022-08-19T16:39:08.478Z,99.90
2022-08-19T16:41:40.233Z,99.90
2022-08-19T16:44:07.773Z,99.90
2022-08-19T16:46:35.211Z,99.90
2022-08-19T16:49:13.726Z,99.90
2022-08-19T16:51:41.723Z,99.90
2022-08-19T16:54:09.028Z,99.90
2022-08-19T16:56:36.163Z,99.90
2022-08-19T16:59:03.572Z,99.90
2022-08-19T17:01:31.597Z,99.90
2022-08-19T17:03:58.859Z,99.90
2022-08-19T17:06:28.718Z,99.90
2022-08-19T17:11:47.496Z,99.90
2022-08-19T17:14:15.076Z,99.90
2022-08-19T17:16:47.382Z,99.90
2022-08-19T17:19:14.880Z,99.90
2022-08-19T17:21:41.939Z,99.90
2022-08-19T17:24:09.224Z,99.90
2022-08-19T17:26:37.016Z,99.90
2022-08-19T17:29:05.182Z,99.90
2022-08-19T17:31:32.305Z,99.90
2022-08-19T17:34:00.291Z,99.90
2022-08-19T17:36:29.435Z,99.90
2022-08-19T17:38:57.914Z,99.90
2022-08-19T17:41:25.339Z,99.90
2022-08-19T17:43:52.816Z,99.90
2022-08-19T17:46:20.596Z,99.90
2022-08-19T17:48:53.011Z,99.90
2022-08-19T17:51:27.879Z,99.90
2022-08-19T17:53:55.351Z,99.90
2022-08-19T17:56:23.687Z,99.90
2022-08-19T17:59:00.209Z,99.90
2022-08-19T18:01:28.802Z,99.90
2022-08-19T18:04:11.366Z,99.90
2022-08-19T18:06:38.421Z,99.90
2022-08-19T18:09:06.156Z,99.90
2022-08-19T18:11:33.496Z,99.90
2022-08-19T18:14:02.113Z,99.90
2022-08-19T18:16:29.696Z,99.90
2022-08-19T18:18:56.851Z,99.90
2022-08-19T20:17:21.467Z,99.90
2022-08-19T20:19:53.706Z,99.90
2022-08-19T23:40:17.558Z,99.90
2022-08-19T23:49:49.363Z,99.90
2022-08-19T23:52:17.265Z,99.90
2022-08-19T23:54:44.383Z,99.90
2022-08-19T23:59:57.849Z,99.90
